sensor_id;sensor_type;location;lat;lon;timestamp;temperature;humidity
71942;DHT22;59997;53.300;-6.260;2023-06-10T00:00:42;10.78;90.51
71942;DHT22;59997;53.300;-6.260;2023-06-10T00:03:08;10.76;90.57
71942;DHT22;59997;53.300;-6.260;2023-06-10T00:05:37;10.81;90.54
71942;DHT22;59997;53.300;-6.260;2023-06-10T00:08:05;10.80;90.62
71942;DHT22;59997;53.300;-6.260;2023-06-10T00:10:38;10.81;90.61
71942;DHT22;59997;53.300;-6.260;2023-06-10T00:13:04;10.77;90.66
71942;DHT22;59997;53.300;-6.260;2023-06-10T00:15:31;10.76;90.65
71942;DHT22;59997;53.300;-6.260;2023-06-10T00:17:56;10.73;90.68
71942;DHT22;59997;53.300;-6.260;2023-06-10T00:20:22;10.77;90.68
71942;DHT22;59997;53.300;-6.260;2023-06-10T00:22:51;10.71;90.72
71942;DHT22;59997;53.300;-6.260;2023-06-10T00:25:16;10.70;90.76
71942;DHT22;59997;53.300;-6.260;2023-06-10T00:27:42;10.70;90.76
71942;DHT22;59997;53.300;-6.260;2023-06-10T00:30:08;10.71;90.82
71942;DHT22;59997;53.300;-6.260;2023-06-10T00:32:37;10.73;90.85
71942;DHT22;59997;53.300;-6.260;2023-06-10T00:35:03;10.80;90.89
71942;DHT22;59997;53.300;-6.260;2023-06-10T00:37:29;10.80;90.93
71942;DHT22;59997;53.300;-6.260;2023-06-10T00:39:55;10.70;90.93
71942;DHT22;59997;53.300;-6.260;2023-06-10T00:42:21;10.67;90.92
71942;DHT22;59997;53.300;-6.260;2023-06-10T00:44:50;10.69;90.94
71942;DHT22;59997;53.300;-6.260;2023-06-10T00:47:15;10.60;90.94
71942;DHT22;59997;53.300;-6.260;2023-06-10T00:49:41;10.42;90.96
71942;DHT22;59997;53.300;-6.260;2023-06-10T00:52:08;10.31;90.92
71942;DHT22;59997;53.300;-6.260;2023-06-10T00:54:34;10.22;91.00
71942;DHT22;59997;53.300;-6.260;2023-06-10T00:57:01;10.17;90.99
71942;DHT22;59997;53.300;-6.260;2023-06-10T00:59:28;10.15;91.02
71942;DHT22;59997;53.300;-6.260;2023-06-10T01:01:55;10.17;91.11
71942;DHT22;59997;53.300;-6.260;2023-06-10T01:04:21;10.18;91.15
71942;DHT22;59997;53.300;-6.260;2023-06-10T01:10:02;10.24;91.15
71942;DHT22;59997;53.300;-6.260;2023-06-10T01:12:43;10.19;91.22
71942;DHT22;59997;53.300;-6.260;2023-06-10T01:15:15;10.21;91.24
71942;DHT22;59997;53.300;-6.260;2023-06-10T01:18:01;10.32;91.32
71942;DHT22;59997;53.300;-6.260;2023-06-10T01:20:31;10.28;91.34
71942;DHT22;59997;53.300;-6.260;2023-06-10T01:23:01;10.21;91.35
71942;DHT22;59997;53.300;-6.260;2023-06-10T01:25:29;10.24;91.37
71942;DHT22;59997;53.300;-6.260;2023-06-10T01:28:02;10.41;91.43
71942;DHT22;59997;53.300;-6.260;2023-06-10T01:30:35;10.46;91.46
71942;DHT22;59997;53.300;-6.260;2023-06-10T01:33:04;10.48;91.45
71942;DHT22;59997;53.300;-6.260;2023-06-10T01:35:33;10.38;91.51
71942;DHT22;59997;53.300;-6.260;2023-06-10T01:38:01;10.36;91.48
71942;DHT22;59997;53.300;-6.260;2023-06-10T01:40:28;10.34;91.51
71942;DHT22;59997;53.300;-6.260;2023-06-10T01:42:54;10.49;91.48
71942;DHT22;59997;53.300;-6.260;2023-06-10T01:45:20;10.52;91.53
71942;DHT22;59997;53.300;-6.260;2023-06-10T01:47:45;10.52;91.57
71942;DHT22;59997;53.300;-6.260;2023-06-10T01:50:11;10.74;91.65
71942;DHT22;59997;53.300;-6.260;2023-06-10T01:52:37;10.83;91.71
71942;DHT22;59997;53.300;-6.260;2023-06-10T01:55:03;10.84;91.74
71942;DHT22;59997;53.300;-6.260;2023-06-10T01:57:29;10.84;91.77
71942;DHT22;59997;53.300;-6.260;2023-06-10T01:59:55;10.81;91.77
71942;DHT22;59997;53.300;-6.260;2023-06-10T02:02:20;10.85;91.80
71942;DHT22;59997;53.300;-6.260;2023-06-10T02:04:47;11.04;91.86
71942;DHT22;59997;53.300;-6.260;2023-06-10T02:07:12;11.14;91.92
71942;DHT22;59997;53.300;-6.260;2023-06-10T02:09:38;11.25;91.98
71942;DHT22;59997;53.300;-6.260;2023-06-10T02:12:04;11.30;91.98
71942;DHT22;59997;53.300;-6.260;2023-06-10T02:14:31;11.44;92.00
71942;DHT22;59997;53.300;-6.260;2023-06-10T02:16:57;11.54;92.05
71942;DHT22;59997;53.300;-6.260;2023-06-10T02:19:23;11.63;92.05
71942;DHT22;59997;53.300;-6.260;2023-06-10T02:21:50;11.63;92.03
71942;DHT22;59997;53.300;-6.260;2023-06-10T02:24:16;11.63;92.03
71942;DHT22;59997;53.300;-6.260;2023-06-10T02:26:41;11.73;92.06
71942;DHT22;59997;53.300;-6.260;2023-06-10T02:29:06;11.78;92.10
71942;DHT22;59997;53.300;-6.260;2023-06-10T02:31:32;11.88;92.15
71942;DHT22;59997;53.300;-6.260;2023-06-10T02:34:01;12.06;92.11
71942;DHT22;59997;53.300;-6.260;2023-06-10T02:36:28;12.22;92.10
71942;DHT22;59997;53.300;-6.260;2023-06-10T02:38:53;12.33;92.17
71942;DHT22;59997;53.300;-6.260;2023-06-10T02:41:19;12.50;92.16
71942;DHT22;59997;53.300;-6.260;2023-06-10T02:43:47;12.57;92.14
71942;DHT22;59997;53.300;-6.260;2023-06-10T02:46:12;12.57;92.16
71942;DHT22;59997;53.300;-6.260;2023-06-10T02:48:42;12.63;92.13
71942;DHT22;59997;53.300;-6.260;2023-06-10T02:51:09;12.67;92.09
71942;DHT22;59997;53.300;-6.260;2023-06-10T02:53:35;12.68;92.10
71942;DHT22;59997;53.300;-6.260;2023-06-10T02:56:01;12.69;92.08
71942;DHT22;59997;53.300;-6.260;2023-06-10T02:58:26;12.69;92.13
71942;DHT22;59997;53.300;-6.260;2023-06-10T03:00:52;12.74;92.08
71942;DHT22;59997;53.300;-6.260;2023-06-10T03:03:18;12.84;92.11
71942;DHT22;59997;53.300;-6.260;2023-06-10T03:05:43;12.85;92.12
71942;DHT22;59997;53.300;-6.260;2023-06-10T03:08:09;12.85;92.15
71942;DHT22;59997;53.300;-6.260;2023-06-10T03:10:34;12.91;92.13
71942;DHT22;59997;53.300;-6.260;2023-06-10T03:13:00;13.02;92.14
71942;DHT22;59997;53.300;-6.260;2023-06-10T03:15:25;13.02;92.15
71942;DHT22;59997;53.300;-6.260;2023-06-10T03:17:51;13.02;92.12
71942;DHT22;59997;53.300;-6.260;2023-06-10T03:20:16;13.12;92.14
71942;DHT22;59997;53.300;-6.260;2023-06-10T03:22:42;13.15;92.17
71942;DHT22;59997;53.300;-6.260;2023-06-10T03:25:08;13.19;92.10
71942;DHT22;59997;53.300;-6.260;2023-06-10T03:27:39;13.17;92.10
71942;DHT22;59997;53.300;-6.260;2023-06-10T03:30:06;13.28;92.06
71942;DHT22;59997;53.300;-6.260;2023-06-10T03:32:31;13.30;92.05
71942;DHT22;59997;53.300;-6.260;2023-06-10T03:34:57;13.40;92.03
71942;DHT22;59997;53.300;-6.260;2023-06-10T03:37:24;13.37;92.01
71942;DHT22;59997;53.300;-6.260;2023-06-10T03:39:49;13.32;91.98
71942;DHT22;59997;53.300;-6.260;2023-06-10T03:42:15;13.39;91.99
71942;DHT22;59997;53.300;-6.260;2023-06-10T03:44:41;13.48;91.99
71942;DHT22;59997;53.300;-6.260;2023-06-10T03:47:06;13.55;91.99
71942;DHT22;59997;53.300;-6.260;2023-06-10T03:49:32;13.64;91.93
71942;DHT22;59997;53.300;-6.260;2023-06-10T03:51:58;13.55;91.83
71942;DHT22;59997;53.300;-6.260;2023-06-10T03:54:24;13.58;91.86
71942;DHT22;59997;53.300;-6.260;2023-06-10T03:56:50;13.62;91.85
71942;DHT22;59997;53.300;-6.260;2023-06-10T03:59:16;13.60;91.86
71942;DHT22;59997;53.300;-6.260;2023-06-10T04:01:42;13.61;91.83
71942;DHT22;59997;53.300;-6.260;2023-06-10T04:04:09;13.60;91.86
71942;DHT22;59997;53.300;-6.260;2023-06-10T04:06:34;13.61;91.90
71942;DHT22;59997;53.300;-6.260;2023-06-10T04:08:59;13.65;91.85
71942;DHT22;59997;53.300;-6.260;2023-06-10T04:11:25;13.67;91.86
71942;DHT22;59997;53.300;-6.260;2023-06-10T04:13:50;13.71;91.84
71942;DHT22;59997;53.300;-6.260;2023-06-10T04:16:16;13.78;91.79
71942;DHT22;59997;53.300;-6.260;2023-06-10T04:18:41;13.71;91.76
71942;DHT22;59997;53.300;-6.260;2023-06-10T04:21:07;13.68;91.77
71942;DHT22;59997;53.300;-6.260;2023-06-10T04:23:35;13.64;91.78
71942;DHT22;59997;53.300;-6.260;2023-06-10T04:26:00;13.62;91.79
71942;DHT22;59997;53.300;-6.260;2023-06-10T04:28:26;13.68;91.75
71942;DHT22;59997;53.300;-6.260;2023-06-10T04:30:52;13.71;91.76
71942;DHT22;59997;53.300;-6.260;2023-06-10T04:33:17;13.72;91.77
71942;DHT22;59997;53.300;-6.260;2023-06-10T04:35:43;13.81;91.72
71942;DHT22;59997;53.300;-6.260;2023-06-10T04:38:08;13.81;91.70
71942;DHT22;59997;53.300;-6.260;2023-06-10T04:40:34;13.75;91.63
71942;DHT22;59997;53.300;-6.260;2023-06-10T04:42:59;13.86;91.60
71942;DHT22;59997;53.300;-6.260;2023-06-10T04:45:25;13.96;91.58
71942;DHT22;59997;53.300;-6.260;2023-06-10T04:47:50;13.99;91.52
71942;DHT22;59997;53.300;-6.260;2023-06-10T04:50:15;14.09;91.45
71942;DHT22;59997;53.300;-6.260;2023-06-10T04:52:41;14.13;91.35
71942;DHT22;59997;53.300;-6.260;2023-06-10T04:55:07;14.16;91.21
71942;DHT22;59997;53.300;-6.260;2023-06-10T04:57:33;14.16;91.10
71942;DHT22;59997;53.300;-6.260;2023-06-10T04:59:58;14.17;91.08
71942;DHT22;59997;53.300;-6.260;2023-06-10T05:02:24;14.14;91.01
71942;DHT22;59997;53.300;-6.260;2023-06-10T05:04:49;14.16;91.02
71942;DHT22;59997;53.300;-6.260;2023-06-10T05:07:15;14.14;90.98
71942;DHT22;59997;53.300;-6.260;2023-06-10T05:09:41;14.23;90.98
71942;DHT22;59997;53.300;-6.260;2023-06-10T05:12:07;14.27;90.85
71942;DHT22;59997;53.300;-6.260;2023-06-10T05:14:32;14.36;90.70
71942;DHT22;59997;53.300;-6.260;2023-06-10T05:16:58;14.36;90.65
71942;DHT22;59997;53.300;-6.260;2023-06-10T05:19:23;14.41;90.57
71942;DHT22;59997;53.300;-6.260;2023-06-10T05:21:49;14.40;90.55
71942;DHT22;59997;53.300;-6.260;2023-06-10T05:24:14;14.47;90.50
71942;DHT22;59997;53.300;-6.260;2023-06-10T05:26:40;14.45;90.39
71942;DHT22;59997;53.300;-6.260;2023-06-10T05:29:07;14.44;90.31
71942;DHT22;59997;53.300;-6.260;2023-06-10T05:31:33;14.47;90.20
71942;DHT22;59997;53.300;-6.260;2023-06-10T05:33:58;14.47;89.86
71942;DHT22;59997;53.300;-6.260;2023-06-10T05:36:24;14.44;89.73
71942;DHT22;59997;53.300;-6.260;2023-06-10T05:38:53;14.42;89.49
71942;DHT22;59997;53.300;-6.260;2023-06-10T05:41:18;14.44;89.20
71942;DHT22;59997;53.300;-6.260;2023-06-10T05:43:44;14.41;89.04
71942;DHT22;59997;53.300;-6.260;2023-06-10T05:46:09;14.42;88.97
71942;DHT22;59997;53.300;-6.260;2023-06-10T05:48:35;14.44;88.75
71942;DHT22;59997;53.300;-6.260;2023-06-10T05:51:00;14.49;88.55
71942;DHT22;59997;53.300;-6.260;2023-06-10T05:53:26;14.57;88.15
71942;DHT22;59997;53.300;-6.260;2023-06-10T05:55:51;14.62;88.07
71942;DHT22;59997;53.300;-6.260;2023-06-10T05:58:19;14.73;88.39
71942;DHT22;59997;53.300;-6.260;2023-06-10T06:00:45;14.82;87.57
71942;DHT22;59997;53.300;-6.260;2023-06-10T06:03:11;14.90;87.45
71942;DHT22;59997;53.300;-6.260;2023-06-10T06:05:37;15.02;87.18
71942;DHT22;59997;53.300;-6.260;2023-06-10T06:08:07;15.23;87.09
71942;DHT22;59997;53.300;-6.260;2023-06-10T06:10:33;15.37;86.48
71942;DHT22;59997;53.300;-6.260;2023-06-10T06:12:59;15.47;85.51
71942;DHT22;59997;53.300;-6.260;2023-06-10T06:15:25;15.62;85.15
71942;DHT22;59997;53.300;-6.260;2023-06-10T06:17:50;15.79;84.99
71942;DHT22;59997;53.300;-6.260;2023-06-10T06:20:18;15.93;83.63
71942;DHT22;59997;53.300;-6.260;2023-06-10T06:22:44;16.13;84.10
71942;DHT22;59997;53.300;-6.260;2023-06-10T06:25:09;16.01;83.34
71942;DHT22;59997;53.300;-6.260;2023-06-10T06:27:35;15.92;82.56
71942;DHT22;59997;53.300;-6.260;2023-06-10T06:30:00;15.89;82.33
71942;DHT22;59997;53.300;-6.260;2023-06-10T06:32:26;15.89;82.94
71942;DHT22;59997;53.300;-6.260;2023-06-10T06:34:53;15.90;82.77
71942;DHT22;59997;53.300;-6.260;2023-06-10T06:37:23;15.94;82.26
71942;DHT22;59997;53.300;-6.260;2023-06-10T06:39:50;16.03;81.71
71942;DHT22;59997;53.300;-6.260;2023-06-10T06:42:16;16.08;81.50
71942;DHT22;59997;53.300;-6.260;2023-06-10T06:44:42;16.14;81.69
71942;DHT22;59997;53.300;-6.260;2023-06-10T06:47:07;16.21;81.59
71942;DHT22;59997;53.300;-6.260;2023-06-10T06:49:33;16.53;81.58
71942;DHT22;59997;53.300;-6.260;2023-06-10T06:51:58;17.52;80.33
71942;DHT22;59997;53.300;-6.260;2023-06-10T06:54:24;18.28;77.78
71942;DHT22;59997;53.300;-6.260;2023-06-10T06:56:50;19.16;75.93
71942;DHT22;59997;53.300;-6.260;2023-06-10T06:59:16;19.75;73.19
71942;DHT22;59997;53.300;-6.260;2023-06-10T07:01:44;19.95;73.19
71942;DHT22;59997;53.300;-6.260;2023-06-10T07:04:10;20.34;71.67
71942;DHT22;59997;53.300;-6.260;2023-06-10T07:06:36;20.54;71.10
71942;DHT22;59997;53.300;-6.260;2023-06-10T07:09:01;21.07;69.16
71942;DHT22;59997;53.300;-6.260;2023-06-10T07:11:27;21.66;68.33
71942;DHT22;59997;53.300;-6.260;2023-06-10T07:13:52;21.66;65.71
71942;DHT22;59997;53.300;-6.260;2023-06-10T07:16:18;21.40;67.64
71942;DHT22;59997;53.300;-6.260;2023-06-10T07:18:45;20.84;68.76
71942;DHT22;59997;53.300;-6.260;2023-06-10T07:21:11;20.94;70.18
71942;DHT22;59997;53.300;-6.260;2023-06-10T07:23:36;20.99;69.24
71942;DHT22;59997;53.300;-6.260;2023-06-10T07:26:02;21.72;67.56
71942;DHT22;59997;53.300;-6.260;2023-06-10T07:28:27;20.78;68.86
71942;DHT22;59997;53.300;-6.260;2023-06-10T07:30:53;20.18;69.87
71942;DHT22;59997;53.300;-6.260;2023-06-10T07:33:18;19.75;70.29
71942;DHT22;59997;53.300;-6.260;2023-06-10T07:35:44;19.27;71.50
71942;DHT22;59997;53.300;-6.260;2023-06-10T07:38:10;19.22;72.94
71942;DHT22;59997;53.300;-6.260;2023-06-10T07:40:35;19.16;72.27
71942;DHT22;59997;53.300;-6.260;2023-06-10T07:43:01;18.94;72.72
71942;DHT22;59997;53.300;-6.260;2023-06-10T07:45:27;18.84;74.59
71942;DHT22;59997;53.300;-6.260;2023-06-10T07:47:52;18.98;74.25
71942;DHT22;59997;53.300;-6.260;2023-06-10T07:50:18;19.14;73.36
71942;DHT22;59997;53.300;-6.260;2023-06-10T07:52:43;19.36;73.01
71942;DHT22;59997;53.300;-6.260;2023-06-10T07:55:09;19.45;72.20
71942;DHT22;59997;53.300;-6.260;2023-06-10T07:57:34;19.68;71.68
71942;DHT22;59997;53.300;-6.260;2023-06-10T08:00:03;19.63;72.18
71942;DHT22;59997;53.300;-6.260;2023-06-10T08:02:29;19.49;73.20
71942;DHT22;59997;53.300;-6.260;2023-06-10T08:04:55;19.68;72.81
71942;DHT22;59997;53.300;-6.260;2023-06-10T08:07:21;19.66;72.38
71942;DHT22;59997;53.300;-6.260;2023-06-10T08:09:47;19.42;71.70
71942;DHT22;59997;53.300;-6.260;2023-06-10T08:12:13;19.51;72.27
71942;DHT22;59997;53.300;-6.260;2023-06-10T08:14:38;19.56;72.99
71942;DHT22;59997;53.300;-6.260;2023-06-10T08:17:04;19.43;72.73
71942;DHT22;59997;53.300;-6.260;2023-06-10T08:19:31;19.60;72.22
71942;DHT22;59997;53.300;-6.260;2023-06-10T08:21:56;19.74;72.70
71942;DHT22;59997;53.300;-6.260;2023-06-10T08:24:22;19.66;72.67
71942;DHT22;59997;53.300;-6.260;2023-06-10T08:26:48;19.71;72.59
71942;DHT22;59997;53.300;-6.260;2023-06-10T08:29:13;19.49;71.82
71942;DHT22;59997;53.300;-6.260;2023-06-10T08:31:42;19.49;72.10
71942;DHT22;59997;53.300;-6.260;2023-06-10T08:34:08;19.30;72.06
71942;DHT22;59997;53.300;-6.260;2023-06-10T08:36:33;19.22;72.02
71942;DHT22;59997;53.300;-6.260;2023-06-10T08:38:59;19.07;72.72
71942;DHT22;59997;53.300;-6.260;2023-06-10T08:41:25;18.90;72.63
71942;DHT22;59997;53.300;-6.260;2023-06-10T08:44:08;19.11;73.77
71942;DHT22;59997;53.300;-6.260;2023-06-10T08:46:36;19.16;73.43
71942;DHT22;59997;53.300;-6.260;2023-06-10T08:49:06;19.26;73.88
71942;DHT22;59997;53.300;-6.260;2023-06-10T08:51:35;19.40;73.52
71942;DHT22;59997;53.300;-6.260;2023-06-10T08:54:04;19.43;72.33
71942;DHT22;59997;53.300;-6.260;2023-06-10T08:56:32;19.36;73.54
71942;DHT22;59997;53.300;-6.260;2023-06-10T08:59:00;19.26;72.90
71942;DHT22;59997;53.300;-6.260;2023-06-10T09:01:25;19.25;73.49
71942;DHT22;59997;53.300;-6.260;2023-06-10T09:03:52;19.30;73.56
71942;DHT22;59997;53.300;-6.260;2023-06-10T09:06:18;19.45;72.54
71942;DHT22;59997;53.300;-6.260;2023-06-10T09:08:44;19.59;71.35
71942;DHT22;59997;53.300;-6.260;2023-06-10T09:11:09;19.63;72.27
71942;DHT22;59997;53.300;-6.260;2023-06-10T09:13:34;19.92;71.90
71942;DHT22;59997;53.300;-6.260;2023-06-10T09:16:00;20.20;71.90
71942;DHT22;59997;53.300;-6.260;2023-06-10T09:18:28;20.54;71.38
71942;DHT22;59997;53.300;-6.260;2023-06-10T09:20:54;20.37;71.43
71942;DHT22;59997;53.300;-6.260;2023-06-10T09:23:19;20.32;70.75
71942;DHT22;59997;53.300;-6.260;2023-06-10T09:25:45;20.54;69.77
71942;DHT22;59997;53.300;-6.260;2023-06-10T09:28:14;21.23;69.29
71942;DHT22;59997;53.300;-6.260;2023-06-10T09:30:40;21.65;67.29
71942;DHT22;59997;53.300;-6.260;2023-06-10T09:33:12;22.06;67.14
71942;DHT22;59997;53.300;-6.260;2023-06-10T09:35:48;22.13;65.99
71942;DHT22;59997;53.300;-6.260;2023-06-10T09:38:19;22.10;65.28
71942;DHT22;59997;53.300;-6.260;2023-06-10T09:40:53;21.68;68.13
71942;DHT22;59997;53.300;-6.260;2023-06-10T09:43:19;21.57;68.71
71942;DHT22;59997;53.300;-6.260;2023-06-10T09:45:47;21.53;66.27
71942;DHT22;59997;53.300;-6.260;2023-06-10T09:48:13;21.36;67.18
71942;DHT22;59997;53.300;-6.260;2023-06-10T09:50:43;21.02;67.62
71942;DHT22;59997;53.300;-6.260;2023-06-10T09:53:10;21.07;69.49
71942;DHT22;59997;53.300;-6.260;2023-06-10T09:55:39;20.96;68.46
71942;DHT22;59997;53.300;-6.260;2023-06-10T09:58:06;20.89;68.03
71942;DHT22;59997;53.300;-6.260;2023-06-10T10:00:35;20.85;68.73
71942;DHT22;59997;53.300;-6.260;2023-06-10T10:03:01;20.26;69.73
71942;DHT22;59997;53.300;-6.260;2023-06-10T10:05:27;19.94;69.78
71942;DHT22;59997;53.300;-6.260;2023-06-10T10:07:52;19.63;71.00
71942;DHT22;59997;53.300;-6.260;2023-06-10T10:10:20;19.22;71.65
71942;DHT22;59997;53.300;-6.260;2023-06-10T10:12:52;18.95;73.23
71942;DHT22;59997;53.300;-6.260;2023-06-10T10:15:21;18.71;73.47
71942;DHT22;59997;53.300;-6.260;2023-06-10T10:17:56;18.45;73.51
71942;DHT22;59997;53.300;-6.260;2023-06-10T10:20:27;17.97;74.53
71942;DHT22;59997;53.300;-6.260;2023-06-10T10:22:56;17.79;75.68
71942;DHT22;59997;53.300;-6.260;2023-06-10T10:25:30;17.63;77.21
71942;DHT22;59997;53.300;-6.260;2023-06-10T10:28:20;17.42;77.66
71942;DHT22;59997;53.300;-6.260;2023-06-10T10:30:50;17.28;78.22
71942;DHT22;59997;53.300;-6.260;2023-06-10T10:33:19;17.25;79.03
71942;DHT22;59997;53.300;-6.260;2023-06-10T10:35:49;17.39;78.98
71942;DHT22;59997;53.300;-6.260;2023-06-10T10:38:15;17.79;79.76
71942;DHT22;59997;53.300;-6.260;2023-06-10T10:40:41;18.18;78.03
71942;DHT22;59997;53.300;-6.260;2023-06-10T10:43:07;18.97;77.65
71942;DHT22;59997;53.300;-6.260;2023-06-10T10:45:34;19.64;76.58
71942;DHT22;59997;53.300;-6.260;2023-06-10T10:48:05;19.98;76.06
71942;DHT22;59997;53.300;-6.260;2023-06-10T10:50:34;20.36;74.20
71942;DHT22;59997;53.300;-6.260;2023-06-10T10:53:02;20.82;73.69
71942;DHT22;59997;53.300;-6.260;2023-06-10T10:55:28;20.95;73.53
71942;DHT22;59997;53.300;-6.260;2023-06-10T10:58:05;20.91;71.29
71942;DHT22;59997;53.300;-6.260;2023-06-10T11:02:59;20.81;72.41
71942;DHT22;59997;53.300;-6.260;2023-06-10T11:05:41;21.10;71.24
71942;DHT22;59997;53.300;-6.260;2023-06-10T11:08:10;21.41;72.21
71942;DHT22;59997;53.300;-6.260;2023-06-10T11:10:38;21.13;69.27
71942;DHT22;59997;53.300;-6.260;2023-06-10T11:13:13;20.96;70.35
71942;DHT22;59997;53.300;-6.260;2023-06-10T11:15:43;20.99;71.07
71942;DHT22;59997;53.300;-6.260;2023-06-10T11:23:11;21.19;70.65
71942;DHT22;59997;53.300;-6.260;2023-06-10T11:25:49;21.34;69.97
71942;DHT22;59997;53.300;-6.260;2023-06-10T11:28:19;21.31;68.08
71942;DHT22;59997;53.300;-6.260;2023-06-10T11:30:45;21.58;67.98
71942;DHT22;59997;53.300;-6.260;2023-06-10T11:33:16;22.09;70.16
71942;DHT22;59997;53.300;-6.260;2023-06-10T11:35:42;21.98;67.34
71942;DHT22;59997;53.300;-6.260;2023-06-10T11:38:08;21.93;68.15
71942;DHT22;59997;53.300;-6.260;2023-06-10T11:40:34;21.99;68.89
71942;DHT22;59997;53.300;-6.260;2023-06-10T11:43:00;21.74;67.16
71942;DHT22;59997;53.300;-6.260;2023-06-10T11:45:25;21.65;68.85
71942;DHT22;59997;53.300;-6.260;2023-06-10T11:48:00;21.92;68.36
71942;DHT22;59997;53.300;-6.260;2023-06-10T11:50:32;22.37;69.28
71942;DHT22;59997;53.300;-6.260;2023-06-10T11:52:58;22.61;66.53
71942;DHT22;59997;53.300;-6.260;2023-06-10T11:55:46;22.20;65.85
71942;DHT22;59997;53.300;-6.260;2023-06-10T11:58:14;22.13;65.34
71942;DHT22;59997;53.300;-6.260;2023-06-10T12:00:53;22.30;67.13
71942;DHT22;59997;53.300;-6.260;2023-06-10T12:03:20;22.33;65.86
71942;DHT22;59997;53.300;-6.260;2023-06-10T12:05:57;22.26;68.38
71942;DHT22;59997;53.300;-6.260;2023-06-10T12:08:23;22.18;68.53
71942;DHT22;59997;53.300;-6.260;2023-06-10T12:10:49;21.99;66.99
71942;DHT22;59997;53.300;-6.260;2023-06-10T12:13:15;21.81;66.61
71942;DHT22;59997;53.300;-6.260;2023-06-10T12:15:40;21.36;67.38
71942;DHT22;59997;53.300;-6.260;2023-06-10T12:18:06;21.34;68.01
71942;DHT22;59997;53.300;-6.260;2023-06-10T12:20:32;21.82;65.99
71942;DHT22;59997;53.300;-6.260;2023-06-10T12:23:08;22.30;66.53
71942;DHT22;59997;53.300;-6.260;2023-06-10T12:25:34;22.40;64.23
71942;DHT22;59997;53.300;-6.260;2023-06-10T12:28:02;22.68;64.46
71942;DHT22;59997;53.300;-6.260;2023-06-10T12:30:28;22.93;63.71
71942;DHT22;59997;53.300;-6.260;2023-06-10T12:32:54;22.84;64.39
71942;DHT22;59997;53.300;-6.260;2023-06-10T12:35:25;22.33;64.61
71942;DHT22;59997;53.300;-6.260;2023-06-10T12:38:06;21.82;65.87
71942;DHT22;59997;53.300;-6.260;2023-06-10T12:40:38;21.34;66.22
71942;DHT22;59997;53.300;-6.260;2023-06-10T12:43:06;21.07;69.16
71942;DHT22;59997;53.300;-6.260;2023-06-10T12:45:36;20.88;68.63
71942;DHT22;59997;53.300;-6.260;2023-06-10T12:48:09;20.55;69.63
71942;DHT22;59997;53.300;-6.260;2023-06-10T12:50:36;20.47;70.11
71942;DHT22;59997;53.300;-6.260;2023-06-10T12:53:03;20.33;70.75
71942;DHT22;59997;53.300;-6.260;2023-06-10T12:55:28;20.29;69.65
71942;DHT22;59997;53.300;-6.260;2023-06-10T12:57:54;20.48;70.51
71942;DHT22;59997;53.300;-6.260;2023-06-10T13:00:21;20.41;71.04
71942;DHT22;59997;53.300;-6.260;2023-06-10T13:02:48;20.34;70.74
71942;DHT22;59997;53.300;-6.260;2023-06-10T13:05:14;20.28;68.45
71942;DHT22;59997;53.300;-6.260;2023-06-10T13:07:41;20.22;69.20
71942;DHT22;59997;53.300;-6.260;2023-06-10T13:10:07;20.36;71.04
71942;DHT22;59997;53.300;-6.260;2023-06-10T13:12:33;20.39;69.91
71942;DHT22;59997;53.300;-6.260;2023-06-10T13:14:58;20.46;69.86
71942;DHT22;59997;53.300;-6.260;2023-06-10T13:17:24;20.53;70.23
71942;DHT22;59997;53.300;-6.260;2023-06-10T13:19:49;20.53;69.93
71942;DHT22;59997;53.300;-6.260;2023-06-10T13:22:15;20.71;69.45
71942;DHT22;59997;53.300;-6.260;2023-06-10T13:24:41;20.70;69.26
71942;DHT22;59997;53.300;-6.260;2023-06-10T13:27:09;20.50;70.70
71942;DHT22;59997;53.300;-6.260;2023-06-10T13:29:34;20.41;69.19
71942;DHT22;59997;53.300;-6.260;2023-06-10T13:31:59;19.94;70.26
71942;DHT22;59997;53.300;-6.260;2023-06-10T13:34:25;19.89;71.67
71942;DHT22;59997;53.300;-6.260;2023-06-10T13:36:50;19.74;70.76
71942;DHT22;59997;53.300;-6.260;2023-06-10T13:39:16;19.73;70.87
71942;DHT22;59997;53.300;-6.260;2023-06-10T13:41:41;19.75;71.08
71942;DHT22;59997;53.300;-6.260;2023-06-10T13:44:07;19.79;71.04
71942;DHT22;59997;53.300;-6.260;2023-06-10T13:46:33;19.68;72.00
71942;DHT22;59997;53.300;-6.260;2023-06-10T13:48:58;19.78;71.45
71942;DHT22;59997;53.300;-6.260;2023-06-10T13:51:24;19.63;70.31
71942;DHT22;59997;53.300;-6.260;2023-06-10T13:53:49;19.42;70.75
71942;DHT22;59997;53.300;-6.260;2023-06-10T13:56:17;19.30;70.87
71942;DHT22;59997;53.300;-6.260;2023-06-10T13:58:43;19.18;71.81
71942;DHT22;59997;53.300;-6.260;2023-06-10T14:01:08;19.12;71.80
71942;DHT22;59997;53.300;-6.260;2023-06-10T14:03:34;19.20;71.72
71942;DHT22;59997;53.300;-6.260;2023-06-10T14:06:00;19.25;71.50
71942;DHT22;59997;53.300;-6.260;2023-06-10T14:08:25;19.35;72.53
71942;DHT22;59997;53.300;-6.260;2023-06-10T14:10:50;19.15;72.84
71942;DHT22;59997;53.300;-6.260;2023-06-10T14:13:17;19.18;72.00
71942;DHT22;59997;53.300;-6.260;2023-06-10T14:15:43;19.07;72.86
71942;DHT22;59997;53.300;-6.260;2023-06-10T14:18:09;19.05;73.27
71942;DHT22;59997;53.300;-6.260;2023-06-10T14:20:34;18.98;73.48
71942;DHT22;59997;53.300;-6.260;2023-06-10T14:23:00;18.91;73.36
71942;DHT22;59997;53.300;-6.260;2023-06-10T14:25:25;18.75;73.67
71942;DHT22;59997;53.300;-6.260;2023-06-10T14:27:51;18.68;74.01
71942;DHT22;59997;53.300;-6.260;2023-06-10T14:30:16;18.50;74.57
71942;DHT22;59997;53.300;-6.260;2023-06-10T14:32:42;18.14;75.08
71942;DHT22;59997;53.300;-6.260;2023-06-10T14:35:08;17.91;76.91
71942;DHT22;59997;53.300;-6.260;2023-06-10T14:37:34;17.66;77.55
71942;DHT22;59997;53.300;-6.260;2023-06-10T14:40:00;17.39;78.04
71942;DHT22;59997;53.300;-6.260;2023-06-10T14:42:25;17.15;78.72
71942;DHT22;59997;53.300;-6.260;2023-06-10T14:44:50;17.06;78.93
71942;DHT22;59997;53.300;-6.260;2023-06-10T14:47:16;16.81;79.49
71942;DHT22;59997;53.300;-6.260;2023-06-10T14:49:42;16.70;80.34
71942;DHT22;59997;53.300;-6.260;2023-06-10T14:52:09;16.62;80.77
71942;DHT22;59997;53.300;-6.260;2023-06-10T14:54:34;16.58;81.46
71942;DHT22;59997;53.300;-6.260;2023-06-10T14:57:00;16.62;82.12
71942;DHT22;59997;53.300;-6.260;2023-06-10T14:59:25;16.65;82.17
71942;DHT22;59997;53.300;-6.260;2023-06-10T15:01:51;16.62;82.94
71942;DHT22;59997;53.300;-6.260;2023-06-10T15:04:17;16.63;83.19
71942;DHT22;59997;53.300;-6.260;2023-06-10T15:06:42;16.58;82.94
71942;DHT22;59997;53.300;-6.260;2023-06-10T15:09:08;16.51;83.48
71942;DHT22;59997;53.300;-6.260;2023-06-10T15:11:34;16.45;83.87
71942;DHT22;59997;53.300;-6.260;2023-06-10T15:13:59;16.31;83.86
71942;DHT22;59997;53.300;-6.260;2023-06-10T15:16:25;16.34;84.29
71942;DHT22;59997;53.300;-6.260;2023-06-10T15:18:51;16.31;84.29
71942;DHT22;59997;53.300;-6.260;2023-06-10T15:21:16;16.27;84.68
71942;DHT22;59997;53.300;-6.260;2023-06-10T15:23:42;16.24;84.75